Time;durP1;ratioP1;P1;durP2;ratioP2;P2;SDS_P1;SDS_P2;PMS_P1;PMS_P2;Temp;Humidity;BMP_temperature;BMP_pressure;BME280_temperature;BME280_humidity;BME280_pressure;Samples;Min_cycle;Max_cycle;Signal;HPM_P1;HPM_P2
2022/12/26 00:00:26;;;;;;;90.47;23.35;;;8.30;99.90;;;;;;4989699;28;20413;-71
2022/12/26 00:02:52;;;;;;;88.90;24.60;;;8.30;99.90;;;;;;4992574;28;20124;-71
2022/12/26 00:05:17;;;;;;;80.85;22.50;;;8.20;99.90;;;;;;4991489;28;20045;-71
2022/12/26 00:07:43;;;;;;;74.47;22.88;;;8.20;99.90;;;;;;4992868;28;20045;-70
2022/12/26 00:10:09;;;;;;;79.95;22.08;;;8.30;99.90;;;;;;4990219;28;20443;-71
2022/12/26 00:12:34;;;;;;;80.90;22.27;;;8.30;99.90;;;;;;4989946;28;20104;-70
2022/12/26 00:15:00;;;;;;;100.55;24.13;;;8.30;99.90;;;;;;4990419;28;20050;-71
2022/12/26 00:17:25;;;;;;;81.28;23.38;;;8.30;99.90;;;;;;4994689;28;20103;-71
2022/12/26 00:19:51;;;;;;;79.63;21.98;;;8.20;99.90;;;;;;4997119;28;20038;-71
2022/12/26 00:22:17;;;;;;;108.53;24.60;;;8.20;99.90;;;;;;4997715;28;20537;-71
2022/12/26 00:24:42;;;;;;;131.38;25.35;;;8.20;99.90;;;;;;4998533;28;20520;-71
2022/12/26 00:27:08;;;;;;;75.65;22.67;;;8.30;99.90;;;;;;4995043;28;20038;-71
2022/12/26 00:29:34;;;;;;;79.28;21.63;;;8.40;99.90;;;;;;4997327;28;20095;-71
2022/12/26 00:31:59;;;;;;;63.97;19.90;;;8.20;99.90;;;;;;4997549;28;20121;-71
2022/12/26 00:34:25;;;;;;;97.60;21.77;;;8.30;99.90;;;;;;4997798;28;20049;-71
2022/12/26 00:36:50;;;;;;;116.65;23.48;;;8.30;99.90;;;;;;5011139;28;20080;-71
2022/12/26 00:39:16;;;;;;;79.90;20.65;;;8.40;99.90;;;;;;4997967;28;20037;-71
2022/12/26 00:41:42;;;;;;;70.50;21.50;;;8.30;99.90;;;;;;4993754;28;20416;-71
2022/12/26 00:44:07;;;;;;;93.25;22.70;;;8.40;99.90;;;;;;4985087;28;20034;-71
2022/12/26 00:46:33;;;;;;;75.82;21.92;;;8.40;99.90;;;;;;4997295;28;20339;-71
2022/12/26 00:49:00;;;;;;;119.85;24.25;;;8.40;99.90;;;;;;4997456;28;20140;-70
2022/12/26 00:51:25;;;;;;;109.82;24.33;;;8.40;99.90;;;;;;4995569;28;20571;-70
2022/12/26 00:53:51;;;;;;;80.28;22.30;;;8.40;99.90;;;;;;4993449;28;20139;-69
2022/12/26 00:56:17;;;;;;;110.60;23.70;;;8.40;99.90;;;;;;4997925;28;20069;-70
2022/12/26 00:58:42;;;;;;;116.88;27.08;;;8.40;99.90;;;;;;4995729;28;20717;-70
2022/12/26 01:01:17;;;;;;;108.13;26.25;;;8.40;99.90;;;;;;4992064;28;20045;-72
2022/12/26 01:03:44;;;;;;;125.72;27.52;;;8.50;99.90;;;;;;4992605;28;20100;-71
2022/12/26 01:06:10;;;;;;;122.22;27.70;;;8.40;99.90;;;;;;5000343;28;20477;-70
2022/12/26 01:08:36;;;;;;;188.23;31.85;;;8.50;99.90;;;;;;4998095;28;20049;-71
2022/12/26 01:11:06;;;;;;;133.57;29.13;;;8.50;99.90;;;;;;4994847;28;20042;-69
2022/12/26 01:13:32;;;;;;;121.28;30.20;;;8.40;99.90;;;;;;4988324;28;20060;-69
2022/12/26 01:15:57;;;;;;;233.70;33.88;;;8.40;99.90;;;;;;4999633;28;20041;-68
2022/12/26 01:18:23;;;;;;;165.85;31.05;;;8.50;99.90;;;;;;4996600;28;20041;-69
2022/12/26 01:20:49;;;;;;;126.30;28.83;;;8.50;99.90;;;;;;4995092;28;20126;-68
2022/12/26 01:23:16;;;;;;;130.05;29.23;;;8.50;99.90;;;;;;4984192;28;20049;-69
2022/12/26 01:25:41;;;;;;;133.98;28.75;;;8.50;99.90;;;;;;5008381;28;20049;-69
2022/12/26 01:28:07;;;;;;;110.50;28.20;;;8.50;99.90;;;;;;4991912;28;20041;-69
2022/12/26 01:30:32;;;;;;;136.98;30.48;;;8.50;99.90;;;;;;4988157;28;20440;-68
2022/12/26 01:32:58;;;;;;;130.20;30.73;;;8.40;99.90;;;;;;4989868;28;20040;-68
2022/12/26 01:35:23;;;;;;;124.10;30.05;;;8.60;99.90;;;;;;4988930;28;20038;-69
2022/12/26 01:37:49;;;;;;;123.05;29.95;;;8.40;99.90;;;;;;4989703;28;20506;-67
2022/12/26 01:40:15;;;;;;;118.75;29.80;;;8.40;99.90;;;;;;4984769;28;20038;-68
2022/12/26 01:42:41;;;;;;;150.40;32.97;;;8.50;99.90;;;;;;4983844;28;20473;-70
2022/12/26 01:45:20;;;;;;;134.30;31.17;;;8.50;99.90;;;;;;4987189;28;20038;-68
2022/12/26 01:47:58;;;;;;;145.52;31.90;;;8.50;99.90;;;;;;4987981;28;20128;-68
2022/12/26 01:50:31;;;;;;;150.02;33.03;;;8.60;99.90;;;;;;4989045;28;20046;-68
2022/12/26 01:53:01;;;;;;;130.23;30.20;;;8.60;99.90;;;;;;4987649;28;20127;-68
2022/12/26 01:55:29;;;;;;;124.55;29.80;;;8.50;99.90;;;;;;5005263;28;20408;-67
2022/12/26 01:58:00;;;;;;;105.63;28.52;;;8.50;99.90;;;;;;4989176;28;20653;-69
2022/12/26 02:00:26;;;;;;;112.53;29.13;;;8.50;99.90;;;;;;4986980;28;20088;-68
2022/12/26 02:05:38;;;;;;;111.20;27.85;;;8.50;99.90;;;;;;4988505;28;20108;-67
2022/12/26 02:08:16;;;;;;;93.97;27.58;;;8.60;99.90;;;;;;4988638;28;20053;-68
2022/12/26 02:10:54;;;;;;;103.90;27.00;;;8.60;99.90;;;;;;4985368;28;21579;-68
2022/12/26 02:13:20;;;;;;;115.97;29.10;;;8.60;99.90;;;;;;4986778;28;20038;-67
2022/12/26 02:15:47;;;;;;;150.90;31.67;;;8.60;99.90;;;;;;4986522;28;20053;-68
2022/12/26 02:18:12;;;;;;;104.05;29.08;;;8.60;99.90;;;;;;4984587;28;20052;-69
2022/12/26 02:20:46;;;;;;;121.47;30.70;;;8.70;99.90;;;;;;4969230;28;20496;-71
2022/12/26 02:23:34;;;;;;;122.30;30.42;;;8.70;99.90;;;;;;4971037;28;20041;-67
2022/12/26 02:26:05;;;;;;;133.90;31.58;;;8.60;99.90;;;;;;4984296;28;20408;-69
2022/12/26 02:28:59;;;;;;;136.50;31.95;;;8.60;99.90;;;;;;4987511;28;20037;-71
2022/12/26 02:31:36;;;;;;;126.25;31.00;;;8.60;99.90;;;;;;4986014;28;20038;-69
2022/12/26 02:34:12;;;;;;;135.35;32.35;;;8.60;99.90;;;;;;4987004;28;20050;-73
2022/12/26 02:37:02;;;;;;;146.80;34.30;;;8.70;99.90;;;;;;4980716;28;20052;-68
2022/12/26 02:39:53;;;;;;;130.93;32.63;;;8.60;99.90;;;;;;4999946;28;20042;-69
2022/12/26 02:42:46;;;;;;;141.90;32.40;;;8.80;99.90;;;;;;4983862;28;20393;-69
2022/12/26 02:48:24;;;;;;;156.73;36.17;;;8.80;99.90;;;;;;4987080;28;20048;-69
2022/12/26 03:18:45;;;;;;;167.43;36.70;;;8.70;99.90;;;;;;4960308;28;20144;-69
2022/12/26 03:21:13;;;;;;;177.50;38.75;;;8.70;99.90;;;;;;5000274;28;20040;-70
2022/12/26 03:23:43;;;;;;;135.88;34.95;;;8.60;99.90;;;;;;4984461;28;20042;-71
2022/12/26 03:31:45;;;;;;;167.75;38.13;;;8.70;99.90;;;;;;4984894;28;20485;-71
2022/12/26 03:34:16;;;;;;;146.80;34.45;;;8.70;99.90;;;;;;4985066;28;20065;-70
2022/12/26 03:37:15;;;;;;;128.38;34.42;;;8.80;99.90;;;;;;4984241;28;20038;-70
2022/12/26 04:20:42;;;;;;;111.40;29.95;;;8.80;99.90;;;;;;5001854;28;20264;-71
2022/12/26 04:46:02;;;;;;;108.63;29.75;;;8.50;99.90;;;;;;4982120;28;20044;-70
2022/12/26 04:51:12;;;;;;;107.90;29.52;;;8.60;99.90;;;;;;4983277;28;20053;-68
2022/12/26 04:53:37;;;;;;;108.47;30.33;;;8.60;99.90;;;;;;4983895;28;20042;-70
2022/12/26 04:56:03;;;;;;;99.68;30.02;;;8.50;99.90;;;;;;4987056;28;20485;-69
2022/12/26 04:58:29;;;;;;;101.43;29.13;;;8.40;99.90;;;;;;4985835;28;20038;-67
2022/12/26 05:09:32;;;;;;;103.72;31.38;;;8.50;99.90;;;;;;4989871;28;20073;-69
2022/12/26 05:11:57;;;;;;;100.53;29.27;;;8.30;99.90;;;;;;4990609;28;20108;-69
2022/12/26 05:14:23;;;;;;;97.65;30.55;;;8.20;99.90;;;;;;4990739;28;20045;-72
2022/12/26 05:30:30;;;;;;;95.57;30.67;;;8.30;99.90;;;;;;4986882;28;20133;-68
2022/12/26 05:35:39;;;;;;;91.80;28.80;;;8.30;99.90;;;;;;4987232;28;20061;-71
2022/12/26 05:38:05;;;;;;;99.82;29.48;;;8.30;99.90;;;;;;4987626;28;20046;-70
2022/12/26 05:40:31;;;;;;;95.03;29.80;;;8.40;99.90;;;;;;5004159;28;20046;-69
2022/12/26 05:42:57;;;;;;;100.50;29.73;;;8.40;99.90;;;;;;4986598;28;20128;-70
2022/12/26 05:45:22;;;;;;;102.88;29.85;;;8.20;99.90;;;;;;4986378;28;20064;-70
2022/12/26 05:47:48;;;;;;;91.10;29.38;;;8.30;99.90;;;;;;4985745;28;20048;-69
2022/12/26 05:50:13;;;;;;;98.03;29.42;;;8.40;99.90;;;;;;4987541;28;20448;-72
2022/12/26 05:52:39;;;;;;;89.18;28.02;;;8.30;99.90;;;;;;4986343;28;20041;-69
2022/12/26 05:55:05;;;;;;;92.47;28.42;;;8.40;99.90;;;;;;4988140;28;20452;-71
2022/12/26 05:57:31;;;;;;;80.68;27.40;;;8.50;99.90;;;;;;4987514;28;20030;-68
2022/12/26 05:59:57;;;;;;;86.72;27.48;;;8.40;99.90;;;;;;4988655;28;20046;-72
2022/12/26 06:02:22;;;;;;;85.90;27.95;;;8.50;99.90;;;;;;4985889;28;20077;-70
2022/12/26 06:04:48;;;;;;;82.90;26.95;;;8.40;99.90;;;;;;4986622;28;20034;-69
2022/12/26 06:07:13;;;;;;;83.45;27.13;;;8.40;99.90;;;;;;4985947;28;20092;-69
2022/12/26 06:09:39;;;;;;;87.10;26.98;;;8.50;99.90;;;;;;4988569;28;20034;-70
2022/12/26 06:12:05;;;;;;;80.72;27.23;;;8.50;99.90;;;;;;4986437;28;20550;-71
2022/12/26 06:14:30;;;;;;;81.35;27.92;;;8.50;99.90;;;;;;4971292;28;20400;-69
2022/12/26 06:16:56;;;;;;;76.35;25.10;;;8.60;99.90;;;;;;4987370;28;20088;-67
2022/12/26 06:19:21;;;;;;;75.50;25.65;;;8.50;99.90;;;;;;4970836;28;20041;-73
2022/12/26 06:21:47;;;;;;;69.43;24.95;;;8.40;99.90;;;;;;4986270;28;20045;-70
2022/12/26 06:24:13;;;;;;;74.43;25.83;;;8.50;99.90;;;;;;4989519;28;20046;-69
2022/12/26 06:26:39;;;;;;;68.72;23.50;;;8.50;99.90;;;;;;4988716;28;20137;-68
2022/12/26 06:29:05;;;;;;;63.88;23.40;;;8.50;99.90;;;;;;4986973;28;20137;-68
2022/12/26 06:31:30;;;;;;;70.97;24.70;;;8.60;99.90;;;;;;4985312;28;20552;-68
2022/12/26 06:33:57;;;;;;;68.82;24.30;;;8.50;99.90;;;;;;5003760;28;20033;-68
2022/12/26 06:36:24;;;;;;;67.05;23.38;;;8.50;99.90;;;;;;4984578;28;20038;-69
2022/12/26 06:38:51;;;;;;;65.05;24.58;;;8.50;99.90;;;;;;4986712;28;20050;-69
2022/12/26 06:41:19;;;;;;;67.13;23.08;;;8.40;99.90;;;;;;4985364;28;20149;-70
2022/12/26 06:43:46;;;;;;;60.25;22.63;;;8.40;99.90;;;;;;5000617;28;20046;-71
2022/12/26 06:46:14;;;;;;;61.70;22.23;;;8.30;99.90;;;;;;4972484;28;20092;-72
2022/12/26 06:48:40;;;;;;;64.15;21.75;;;8.30;99.90;;;;;;4986711;28;20069;-69
2022/12/26 06:51:10;;;;;;;63.03;21.95;;;8.20;99.90;;;;;;4984622;28;20046;-69
2022/12/26 06:53:36;;;;;;;54.88;20.17;;;8.30;99.90;;;;;;4985726;28;20038;-67
2022/12/26 06:56:07;;;;;;;61.50;21.70;;;8.10;99.90;;;;;;4987862;28;20040;-71
2022/12/26 06:58:33;;;;;;;57.72;20.50;;;8.10;99.90;;;;;;5000909;28;20053;-70
2022/12/26 07:01:07;;;;;;;60.90;21.65;;;8.10;99.90;;;;;;5000984;28;20026;-68
2022/12/26 07:03:33;;;;;;;67.60;22.77;;;8.10;99.90;;;;;;4985656;28;20129;-69
2022/12/26 07:06:07;;;;;;;63.95;22.15;;;8.00;99.90;;;;;;4986245;28;20156;-70
2022/12/26 07:08:33;;;;;;;58.15;22.23;;;8.10;99.90;;;;;;4982156;28;20045;-69
2022/12/26 07:10:59;;;;;;;63.28;22.60;;;8.00;99.90;;;;;;4987529;28;20042;-69
2022/12/26 07:13:24;;;;;;;59.60;22.08;;;8.00;99.90;;;;;;4984937;28;20103;-70
2022/12/26 07:15:50;;;;;;;64.43;23.25;;;8.10;99.90;;;;;;4986581;28;20538;-70
2022/12/26 07:18:15;;;;;;;66.13;23.02;;;7.90;99.90;;;;;;4985910;28;20046;-67
2022/12/26 07:20:41;;;;;;;67.28;23.30;;;7.90;99.90;;;;;;4987742;28;20140;-67
2022/12/26 07:23:06;;;;;;;69.38;22.63;;;7.90;99.90;;;;;;4986467;28;20038;-68
2022/12/26 07:25:32;;;;;;;69.25;24.50;;;7.90;99.90;;;;;;4984848;28;20136;-67
2022/12/26 07:27:59;;;;;;;71.68;24.00;;;7.80;99.90;;;;;;4983637;28;20042;-67
2022/12/26 07:30:25;;;;;;;68.93;23.60;;;7.90;99.90;;;;;;4999842;28;20052;-66
2022/12/26 07:32:50;;;;;;;66.57;23.60;;;7.90;99.90;;;;;;4983901;28;20046;-72
2022/12/26 07:35:16;;;;;;;63.50;22.58;;;8.00;99.90;;;;;;4986374;28;20065;-67
2022/12/26 07:37:41;;;;;;;68.45;23.52;;;7.90;99.90;;;;;;4983793;28;20068;-67
2022/12/26 07:40:08;;;;;;;65.65;22.33;;;7.90;99.90;;;;;;4983254;28;20354;-66
2022/12/26 07:42:33;;;;;;;70.82;23.77;;;7.80;99.90;;;;;;4986714;28;20523;-67
2022/12/26 07:44:59;;;;;;;69.28;23.90;;;7.90;99.90;;;;;;5002701;28;20061;-70
2022/12/26 07:47:24;;;;;;;66.13;22.52;;;7.80;99.90;;;;;;4985896;28;20072;-69
2022/12/26 07:49:50;;;;;;;63.42;22.27;;;7.80;99.90;;;;;;4987110;28;20033;-66
2022/12/26 07:52:17;;;;;;;63.90;21.85;;;7.90;99.90;;;;;;4983108;28;20034;-65
2022/12/26 07:54:42;;;;;;;64.50;21.75;;;8.00;99.90;;;;;;5000306;28;20041;-68
2022/12/26 07:57:08;;;;;;;62.95;20.98;;;8.00;99.90;;;;;;5001674;28;20111;-68
2022/12/26 07:59:34;;;;;;;55.55;20.30;;;8.00;99.90;;;;;;5004676;28;20484;-69
2022/12/26 08:02:03;;;;;;;55.20;20.35;;;7.90;99.90;;;;;;4989241;28;20041;-71
2022/12/26 08:04:30;;;;;;;54.30;20.00;;;8.00;99.90;;;;;;4989290;28;20042;-66
2022/12/26 08:06:55;;;;;;;55.67;20.35;;;8.00;99.90;;;;;;4988666;28;20092;-67
2022/12/26 08:09:21;;;;;;;52.83;19.30;;;7.90;99.90;;;;;;4986098;28;20069;-66
2022/12/26 08:11:47;;;;;;;52.17;18.48;;;7.90;99.90;;;;;;4982460;28;20073;-70
2022/12/26 08:14:15;;;;;;;48.38;18.45;;;7.90;99.90;;;;;;4984034;28;20045;-68
2022/12/26 08:16:41;;;;;;;42.70;17.30;;;8.00;99.90;;;;;;5001802;28;20134;-69
2022/12/26 08:19:07;;;;;;;45.83;17.45;;;8.10;99.90;;;;;;4984361;28;20109;-66
2022/12/26 08:21:33;;;;;;;49.70;16.75;;;8.10;99.90;;;;;;4985347;28;20046;-67
2022/12/26 08:23:58;;;;;;;40.40;15.00;;;8.20;99.90;;;;;;4986135;28;20052;-70
2022/12/26 08:26:24;;;;;;;39.83;14.60;;;8.20;99.90;;;;;;4985537;28;20108;-69
2022/12/26 08:28:50;;;;;;;43.78;15.02;;;8.40;99.90;;;;;;4987427;28;20504;-68
2022/12/26 08:31:17;;;;;;;39.25;13.90;;;8.30;99.90;;;;;;4987445;28;20046;-67
2022/12/26 08:33:43;;;;;;;38.50;13.68;;;8.40;99.90;;;;;;4987088;28;20477;-68
2022/12/26 08:36:11;;;;;;;38.22;13.52;;;8.50;99.90;;;;;;4986434;28;20041;-69
2022/12/26 08:38:37;;;;;;;34.75;12.13;;;8.60;99.90;;;;;;4984706;28;20041;-70
2022/12/26 08:41:03;;;;;;;30.27;12.25;;;8.70;99.90;;;;;;4988939;28;20080;-67
2022/12/26 08:43:28;;;;;;;32.15;11.55;;;8.70;99.90;;;;;;4988377;28;21369;-66
2022/12/26 08:46:05;;;;;;;35.33;11.35;;;8.80;99.90;;;;;;4989844;28;20527;-68
2022/12/26 08:48:31;;;;;;;35.05;11.13;;;8.80;99.90;;;;;;4986629;28;20077;-70
2022/12/26 08:51:02;;;;;;;29.38;11.27;;;9.00;99.90;;;;;;5006784;28;20034;-66
2022/12/26 08:53:29;;;;;;;28.55;11.02;;;8.90;99.90;;;;;;4989718;28;20065;-69
2022/12/26 08:55:55;;;;;;;26.90;10.77;;;8.90;99.90;;;;;;4991630;28;20485;-66
2022/12/26 08:58:21;;;;;;;30.77;11.23;;;9.10;99.90;;;;;;4989569;28;20377;-67
2022/12/26 09:00:47;;;;;;;31.85;11.23;;;9.10;99.90;;;;;;4990723;28;20041;-67
2022/12/26 09:03:14;;;;;;;37.60;11.52;;;9.10;99.90;;;;;;4992209;28;20037;-71
2022/12/26 09:05:39;;;;;;;27.00;11.65;;;9.00;99.90;;;;;;4992300;28;20492;-68
2022/12/26 09:08:05;;;;;;;26.70;11.18;;;9.10;99.90;;;;;;4990907;28;20052;-66
2022/12/26 09:10:31;;;;;;;32.25;11.23;;;9.00;99.90;;;;;;4989475;28;20560;-71
2022/12/26 09:12:57;;;;;;;29.00;12.02;;;9.10;99.90;;;;;;4983847;28;20046;-68
2022/12/26 09:15:23;;;;;;;29.75;11.90;;;9.00;99.90;;;;;;4987446;28;20813;-65
2022/12/26 09:17:48;;;;;;;31.17;11.15;;;9.10;99.90;;;;;;5005803;28;20061;-68
2022/12/26 09:20:14;;;;;;;34.40;12.20;;;9.00;99.90;;;;;;4990345;28;20045;-71
2022/12/26 09:23:14;;;;;;;27.20;12.70;;;9.00;99.90;;;;;;4974576;28;20503;-68
2022/12/26 09:25:31;;;;;;;32.42;11.68;;;9.00;99.90;;;;;;5004918;28;20136;-65
2022/12/26 09:27:56;;;;;;;24.77;11.40;;;9.00;99.90;;;;;;4989491;28;20140;-66
2022/12/26 09:30:22;;;;;;;24.95;10.05;;;9.10;99.90;;;;;;4990950;28;20507;-67
2022/12/26 09:32:48;;;;;;;24.25;10.93;;;9.10;99.90;;;;;;4987495;28;20068;-66
2022/12/26 09:35:14;;;;;;;20.60;11.02;;;9.10;99.90;;;;;;4987769;28;20042;-66
2022/12/26 09:37:39;;;;;;;20.80;11.38;;;9.20;99.90;;;;;;4988249;28;20060;-70
2022/12/26 09:40:21;;;;;;;19.13;9.20;;;9.20;99.90;;;;;;4987383;28;20041;-67
2022/12/26 09:43:15;;;;;;;22.67;8.93;;;9.20;99.90;;;;;;4986998;28;20422;-68
2022/12/26 09:45:53;;;;;;;22.85;9.10;;;9.20;99.90;;;;;;4986916;28;21157;-68
2022/12/26 09:48:46;;;;;;;18.33;9.60;;;9.30;99.90;;;;;;4981530;28;20041;-69
2022/12/26 09:51:11;;;;;;;20.40;9.98;;;9.30;99.90;;;;;;4992894;28;20087;-69
2022/12/26 09:53:42;;;;;;;17.92;8.60;;;9.30;99.90;;;;;;4986030;28;20400;-70
2022/12/26 09:56:14;;;;;;;20.25;6.60;;;9.30;99.90;;;;;;4988322;28;20042;-69
2022/12/26 09:58:49;;;;;;;19.83;4.37;;;9.20;99.90;;;;;;4990190;28;20397;-69
2022/12/26 10:01:19;;;;;;;28.30;4.30;;;9.00;99.90;;;;;;4989091;28;20099;-68
2022/12/26 10:03:52;;;;;;;30.08;5.18;;;8.80;99.90;;;;;;5000317;28;20041;-70
2022/12/26 10:06:45;;;;;;;16.05;3.03;;;8.60;99.90;;;;;;4986548;28;20041;-71
2022/12/26 10:09:19;;;;;;;11.15;2.55;;;8.30;99.90;;;;;;4946813;28;20045;-68
2022/12/26 10:12:05;;;;;;;19.30;3.17;;;8.10;99.90;;;;;;5002129;28;20483;-68
2022/12/26 10:14:54;;;;;;;17.23;2.40;;;8.00;99.90;;;;;;5001318;28;20049;-71
2022/12/26 10:17:40;;;;;;;20.85;3.08;;;7.80;99.90;;;;;;4987173;28;20049;-65
2022/12/26 10:20:48;;;;;;;26.98;3.55;;;7.70;99.90;;;;;;4986068;28;20038;-66
2022/12/26 10:23:25;;;;;;;16.95;2.45;;;7.60;99.90;;;;;;4892933;29;20055;-72
2022/12/26 10:26:07;;;;;;;16.30;2.78;;;7.60;99.90;;;;;;4996589;28;20108;-68
2022/12/26 10:28:52;;;;;;;13.05;2.08;;;7.50;99.90;;;;;;4986343;28;20045;-67
2022/12/26 10:31:41;;;;;;;13.13;1.83;;;7.60;99.90;;;;;;4971504;28;20045;-73
2022/12/26 10:34:24;;;;;;;16.85;3.10;;;7.70;99.90;;;;;;4987441;28;20042;-70
2022/12/26 10:36:53;;;;;;;;;;;7.70;99.90;;;;;;4987594;28;20377;-67
2022/12/26 10:39:27;;;;;;;11.65;1.85;;;7.70;99.90;;;;;;4984934;28;19917;-70
2022/12/26 10:42:02;;;;;;;12.48;1.67;;;7.90;99.90;;;;;;4986880;28;20044;-69
2022/12/26 10:44:28;;;;;;;13.95;1.90;;;8.00;99.90;;;;;;5002956;28;20045;-68
2022/12/26 10:46:58;;;;;;;9.32;1.85;;;8.00;99.90;;;;;;4986444;28;20046;-69
2022/12/26 10:49:25;;;;;;;16.30;2.28;;;8.00;99.90;;;;;;4986614;28;21328;-67
2022/12/26 10:51:55;;;;;;;15.77;1.88;;;7.90;99.90;;;;;;4985298;28;20079;-66
2022/12/26 10:54:20;;;;;;;19.52;2.15;;;7.90;99.90;;;;;;4987024;28;20187;-68
2022/12/26 10:56:49;;;;;;;11.65;2.60;;;7.90;99.90;;;;;;4991956;28;20531;-71
2022/12/26 10:59:19;;;;;;;12.20;1.67;;;7.90;99.90;;;;;;4991711;28;20053;-71
2022/12/26 11:01:48;;;;;;;14.20;1.95;;;7.90;99.90;;;;;;4988219;28;20034;-69
2022/12/26 11:04:17;;;;;;;15.57;1.85;;;7.80;99.90;;;;;;4988792;28;20030;-72
2022/12/26 11:06:43;;;;;;;13.60;1.60;;;7.70;99.90;;;;;;4989813;28;20370;-73
2022/12/26 11:09:37;;;;;;;10.23;1.67;;;7.70;99.90;;;;;;4984711;28;20381;-71
2022/12/26 11:12:04;;;;;;;12.38;1.58;;;7.70;99.90;;;;;;4990766;28;20042;-70
2022/12/26 11:14:29;;;;;;;6.03;1.20;;;7.70;99.90;;;;;;4987708;28;20042;-71
2022/12/26 11:16:58;;;;;;;13.85;1.65;;;7.70;99.90;;;;;;4990322;28;20141;-69
2022/12/26 11:19:33;;;;;;;14.32;1.30;;;7.70;99.90;;;;;;4988499;28;20096;-72
2022/12/26 11:22:24;;;;;;;12.25;1.85;;;7.70;99.90;;;;;;4986774;28;20120;-69
2022/12/26 11:25:08;;;;;;;9.65;1.83;;;7.70;99.90;;;;;;4987121;28;20050;-69
2022/12/26 11:27:39;;;;;;;10.98;1.30;;;7.80;99.90;;;;;;4991733;28;20484;-68
2022/12/26 11:30:21;;;;;;;12.90;2.08;;;7.70;99.90;;;;;;4991371;28;20503;-70
2022/12/26 11:32:51;;;;;;;16.00;2.23;;;7.70;99.90;;;;;;4991537;28;20077;-72
2022/12/26 11:35:27;;;;;;;9.90;1.42;;;7.70;99.90;;;;;;4990521;28;20305;-70
2022/12/26 11:37:55;;;;;;;10.07;1.23;;;7.70;99.90;;;;;;5007815;28;20042;-71
2022/12/26 11:40:27;;;;;;;13.10;1.88;;;7.80;99.90;;;;;;4990653;28;20429;-72
2022/12/26 11:42:59;;;;;;;8.98;1.63;;;7.70;99.90;;;;;;4990961;28;20042;-67
2022/12/26 11:45:29;;;;;;;11.95;1.77;;;7.70;99.90;;;;;;4979451;28;20444;-76
2022/12/26 11:47:59;;;;;;;17.67;1.73;;;7.60;99.90;;;;;;5007840;28;20046;-71
2022/12/26 11:50:28;;;;;;;12.63;1.80;;;7.60;99.90;;;;;;4983919;28;20049;-75
2022/12/26 11:52:56;;;;;;;22.60;1.77;;;7.70;99.90;;;;;;4987147;28;20116;-73
2022/12/26 11:55:22;;;;;;;13.13;1.80;;;7.80;99.90;;;;;;4990189;28;20108;-73
2022/12/26 11:57:59;;;;;;;9.07;1.73;;;7.90;99.90;;;;;;4990188;28;20053;-66
2022/12/26 12:00:25;;;;;;;19.77;2.28;;;7.90;99.90;;;;;;4989557;28;20042;-73
2022/12/26 12:02:51;;;;;;;11.77;1.55;;;7.80;99.90;;;;;;4987012;28;20059;-70
2022/12/26 12:05:51;;;;;;;21.88;2.42;;;7.80;99.90;;;;;;4992775;28;20049;-70
2022/12/26 12:08:41;;;;;;;11.48;1.50;;;7.70;99.90;;;;;;5004549;28;20389;-71
2022/12/26 12:11:50;;;;;;;18.77;1.67;;;7.70;99.90;;;;;;4981877;28;20362;-70
2022/12/26 12:14:37;;;;;;;18.23;2.60;;;7.60;99.90;;;;;;4954734;28;20064;-66
2022/12/26 12:17:27;;;;;;;26.30;2.20;;;7.60;99.90;;;;;;4986442;28;20088;-68
2022/12/26 12:20:10;;;;;;;21.00;2.30;;;7.50;99.90;;;;;;4990621;28;20046;-69
2022/12/26 12:22:50;;;;;;;18.70;2.92;;;7.50;99.90;;;;;;5004286;28;20049;-70
2022/12/26 12:25:30;;;;;;;15.70;1.95;;;7.50;99.90;;;;;;4990564;28;20065;-70
2022/12/26 12:28:18;;;;;;;24.15;3.00;;;7.50;99.90;;;;;;4989324;28;20481;-68
2022/12/26 12:31:07;;;;;;;22.20;2.72;;;7.40;99.90;;;;;;4991477;28;20468;-69
2022/12/26 12:34:12;;;;;;;34.38;7.43;;;7.30;99.90;;;;;;4943299;28;20053;-69
2022/12/26 12:36:55;;;;;;;43.95;10.07;;;7.20;99.90;;;;;;4985184;28;20057;-69
2022/12/26 12:39:30;;;;;;;62.17;14.48;;;7.10;99.90;;;;;;4992172;28;20089;-69
2022/12/26 12:42:02;;;;;;;45.75;12.25;;;7.00;99.90;;;;;;4988740;28;20476;-69
2022/12/26 12:44:57;;;;;;;36.17;8.50;;;6.90;99.90;;;;;;4989762;28;20034;-71
2022/12/26 12:47:49;;;;;;;15.32;2.70;;;6.80;99.90;;;;;;4986078;28;20046;-73
2022/12/26 12:50:52;;;;;;;17.70;2.83;;;6.70;99.90;;;;;;4987330;28;20463;-69
2022/12/26 12:53:51;;;;;;;24.80;3.13;;;6.70;99.90;;;;;;4975775;28;20057;-69
2022/12/26 12:56:42;;;;;;;23.20;2.60;;;6.70;99.90;;;;;;4987062;28;21495;-69
2022/12/26 12:59:39;;;;;;;25.80;2.45;;;6.60;99.90;;;;;;4988468;28;20088;-69
2022/12/26 13:02:22;;;;;;;21.00;2.88;;;6.60;99.90;;;;;;4961361;28;20054;-67
2022/12/26 13:04:54;;;;;;;22.08;1.92;;;6.60;99.90;;;;;;4981661;28;20092;-68
2022/12/26 13:07:28;;;;;;;22.60;2.67;;;6.60;99.90;;;;;;4985420;28;20042;-68
2022/12/26 13:10:01;;;;;;;19.80;2.92;;;6.50;99.90;;;;;;5000788;28;20439;-66
2022/12/26 13:12:30;;;;;;;;;;;6.50;99.90;;;;;;4981799;28;20042;-69
2022/12/26 13:15:00;;;;;;;19.73;3.05;;;6.60;99.90;;;;;;4982516;28;19932;-67
2022/12/26 13:17:38;;;;;;;22.15;3.03;;;6.60;99.90;;;;;;4999640;28;20591;-65
2022/12/26 13:20:32;;;;;;;24.48;3.00;;;6.60;99.90;;;;;;4986083;28;20064;-69
2022/12/26 13:26:13;;;;;;;17.40;2.60;;;6.70;99.90;;;;;;4986665;28;20049;-69
2022/12/26 13:28:50;;;;;;;15.40;1.70;;;6.60;99.90;;;;;;4986018;28;20411;-69
2022/12/26 13:31:16;;;;;;;22.20;2.45;;;6.60;99.90;;;;;;5002023;28;20034;-68
2022/12/26 13:33:43;;;;;;;21.52;2.30;;;6.60;99.90;;;;;;4970207;28;20037;-68
2022/12/26 13:36:29;;;;;;;19.58;2.22;;;6.60;99.90;;;;;;4985200;28;20052;-69
2022/12/26 13:38:54;;;;;;;21.70;2.50;;;6.60;99.90;;;;;;5002578;28;20041;-68
2022/12/26 13:44:22;;;;;;;20.52;2.38;;;6.60;99.90;;;;;;4985511;28;20500;-69
2022/12/26 13:46:48;;;;;;;18.60;2.90;;;6.60;99.90;;;;;;4980947;28;20045;-68
2022/12/26 13:49:37;;;;;;;23.13;2.28;;;6.60;99.90;;;;;;4991593;28;20062;-71
2022/12/26 13:52:18;;;;;;;14.43;2.35;;;6.60;99.90;;;;;;4993900;28;20073;-69
2022/12/26 13:54:46;;;;;;;22.42;3.05;;;6.60;99.90;;;;;;4989647;28;20501;-66
2022/12/26 13:57:26;;;;;;;18.30;2.50;;;6.60;99.90;;;;;;4994123;28;20057;-67
2022/12/26 14:00:11;;;;;;;22.88;3.38;;;6.60;99.90;;;;;;4994778;28;20042;-69
2022/12/26 14:02:55;;;;;;;18.95;2.90;;;6.50;99.90;;;;;;4989462;28;20061;-68
2022/12/26 14:05:42;;;;;;;24.92;2.65;;;6.40;99.90;;;;;;4992098;28;20041;-68
2022/12/26 14:08:30;;;;;;;23.08;2.70;;;6.30;99.90;;;;;;5007886;28;20408;-67
2022/12/26 14:11:21;;;;;;;23.20;2.80;;;6.30;99.90;;;;;;4993424;28;20042;-67
2022/12/26 14:14:00;;;;;;;21.23;3.30;;;6.30;99.90;;;;;;4994655;28;20050;-68
2022/12/26 14:17:14;;;;;;;22.40;2.50;;;6.30;99.90;;;;;;4991157;28;20045;-67
2022/12/26 14:20:07;;;;;;;25.90;2.80;;;6.30;99.90;;;;;;4957142;28;20052;-68
2022/12/26 14:22:32;;;;;;;18.30;2.65;;;6.20;99.90;;;;;;4987829;28;20073;-67
2022/12/26 14:25:04;;;;;;;18.42;2.10;;;6.20;99.90;;;;;;4991808;28;20076;-66
2022/12/26 14:27:36;;;;;;;21.95;2.30;;;6.20;99.90;;;;;;4990984;28;20045;-66
2022/12/26 14:30:54;;;;;;;17.33;2.30;;;6.20;99.90;;;;;;4992358;28;20050;-67
2022/12/26 14:33:31;;;;;;;21.42;2.60;;;6.20;99.90;;;;;;4958850;28;20049;-67
2022/12/26 14:36:20;;;;;;;20.90;2.33;;;6.20;99.90;;;;;;4983544;28;20419;-68
2022/12/26 14:39:00;;;;;;;18.35;3.10;;;6.20;99.90;;;;;;4976998;28;20042;-68
2022/12/26 14:44:35;;;;;;;20.90;2.17;;;6.20;99.90;;;;;;4989671;28;20448;-67
2022/12/26 14:47:03;;;;;;;28.65;2.90;;;6.10;99.90;;;;;;4985567;28;20042;-67
2022/12/26 14:49:31;;;;;;;18.05;2.42;;;6.10;99.90;;;;;;4993490;28;20412;-67
2022/12/26 14:52:21;;;;;;;18.27;2.10;;;6.10;99.90;;;;;;4987051;28;20042;-67
2022/12/26 14:54:48;;;;;;;22.13;2.10;;;6.10;99.90;;;;;;4990054;28;20046;-68
2022/12/26 14:57:38;;;;;;;13.38;2.83;;;6.00;99.90;;;;;;4986276;28;20133;-68
2022/12/26 15:00:28;;;;;;;29.42;2.28;;;6.00;99.90;;;;;;4987821;28;20484;-68
2022/12/26 15:03:02;;;;;;;23.85;2.67;;;5.90;99.90;;;;;;4978765;28;20053;-66
2022/12/26 15:05:35;;;;;;;20.40;2.78;;;5.90;99.90;;;;;;4969859;28;20049;-67
2022/12/26 15:08:48;;;;;;;15.52;2.13;;;5.80;99.90;;;;;;4984173;28;20083;-68
2022/12/26 15:11:39;;;;;;;;;;;5.80;99.90;;;;;;5002784;28;21382;-67
2022/12/26 15:14:45;;;;;;;14.95;2.40;;;5.70;99.90;;;;;;4988339;28;19922;-67
2022/12/26 15:17:10;;;;;;;17.27;2.47;;;5.80;99.90;;;;;;4974651;28;20061;-67
2022/12/26 15:20:12;;;;;;;17.40;2.30;;;5.80;99.90;;;;;;4990078;28;20092;-65
2022/12/26 15:23:04;;;;;;;16.65;2.53;;;5.80;99.90;;;;;;4985549;28;20053;-67
2022/12/26 15:26:11;;;;;;;19.20;2.20;;;5.80;99.90;;;;;;4988190;28;20046;-67
2022/12/26 15:28:51;;;;;;;21.45;2.42;;;5.80;99.90;;;;;;4946869;28;20047;-67